sensor_id;sensor_type;location;lat;lon;timestamp;temperature;humidity
13072;DHT22;6602;58.934;11.166;2023-05-27T00:03:41;10.50;99.90
13072;DHT22;6602;58.934;11.166;2023-05-27T00:08:42;10.60;99.90
13072;DHT22;6602;58.934;11.166;2023-05-27T00:13:48;10.40;99.90
13072;DHT22;6602;58.934;11.166;2023-05-27T00:18:52;10.20;99.90
13072;DHT22;6602;58.934;11.166;2023-05-27T00:23:53;9.80;99.90
13072;DHT22;6602;58.934;11.166;2023-05-27T00:28:57;9.70;99.90
13072;DHT22;6602;58.934;11.166;2023-05-27T00:33:58;9.70;99.90
13072;DHT22;6602;58.934;11.166;2023-05-27T00:39:00;9.70;99.90
13072;DHT22;6602;58.934;11.166;2023-05-27T00:44:01;9.70;99.90
13072;DHT22;6602;58.934;11.166;2023-05-27T00:49:03;9.50;99.90
13072;DHT22;6602;58.934;11.166;2023-05-27T00:54:04;9.40;99.90
13072;DHT22;6602;58.934;11.166;2023-05-27T00:59:06;9.40;99.90
13072;DHT22;6602;58.934;11.166;2023-05-27T01:04:07;9.40;99.90
13072;DHT22;6602;58.934;11.166;2023-05-27T01:14:30;9.00;99.90
13072;DHT22;6602;58.934;11.166;2023-05-27T01:19:40;9.10;99.90
13072;DHT22;6602;58.934;11.166;2023-05-27T01:24:45;8.90;99.90
13072;DHT22;6602;58.934;11.166;2023-05-27T01:29:47;8.80;99.90
13072;DHT22;6602;58.934;11.166;2023-05-27T01:40:13;8.70;99.90
13072;DHT22;6602;58.934;11.166;2023-05-27T01:45:15;8.40;99.90
13072;DHT22;6602;58.934;11.166;2023-05-27T01:50:16;8.30;99.90
13072;DHT22;6602;58.934;11.166;2023-05-27T01:55:17;8.40;99.90
13072;DHT22;6602;58.934;11.166;2023-05-27T02:00:18;8.60;99.90
13072;DHT22;6602;58.934;11.166;2023-05-27T02:05:19;8.80;99.90
13072;DHT22;6602;58.934;11.166;2023-05-27T02:10:22;8.70;99.90
13072;DHT22;6602;58.934;11.166;2023-05-27T02:15:26;8.60;99.90
13072;DHT22;6602;58.934;11.166;2023-05-27T02:20:27;8.40;99.90
13072;DHT22;6602;58.934;11.166;2023-05-27T02:25:30;8.10;99.90
13072;DHT22;6602;58.934;11.166;2023-05-27T02:30:31;8.00;99.90
13072;DHT22;6602;58.934;11.166;2023-05-27T02:35:32;8.00;99.90
13072;DHT22;6602;58.934;11.166;2023-05-27T02:40:33;8.20;99.90
13072;DHT22;6602;58.934;11.166;2023-05-27T02:45:34;8.00;99.90
13072;DHT22;6602;58.934;11.166;2023-05-27T02:50:35;7.80;99.90
13072;DHT22;6602;58.934;11.166;2023-05-27T02:55:36;7.80;99.90
13072;DHT22;6602;58.934;11.166;2023-05-27T03:00:40;7.90;99.90
13072;DHT22;6602;58.934;11.166;2023-05-27T03:05:44;8.10;99.90
13072;DHT22;6602;58.934;11.166;2023-05-27T03:10:47;7.90;99.90
13072;DHT22;6602;58.934;11.166;2023-05-27T03:15:51;7.90;99.90
13072;DHT22;6602;58.934;11.166;2023-05-27T03:20:52;7.90;99.90
13072;DHT22;6602;58.934;11.166;2023-05-27T03:25:53;7.90;99.90
13072;DHT22;6602;58.934;11.166;2023-05-27T03:30:54;7.80;99.90
13072;DHT22;6602;58.934;11.166;2023-05-27T03:35:56;8.00;99.90
13072;DHT22;6602;58.934;11.166;2023-05-27T03:40:59;8.30;99.90
13072;DHT22;6602;58.934;11.166;2023-05-27T03:46:00;8.50;99.90
13072;DHT22;6602;58.934;11.166;2023-05-27T03:51:03;8.40;99.90
13072;DHT22;6602;58.934;11.166;2023-05-27T03:56:04;8.60;99.90
13072;DHT22;6602;58.934;11.166;2023-05-27T04:01:05;9.00;99.90
13072;DHT22;6602;58.934;11.166;2023-05-27T04:06:06;9.10;99.90
13072;DHT22;6602;58.934;11.166;2023-05-27T04:11:11;9.20;99.90
13072;DHT22;6602;58.934;11.166;2023-05-27T04:16:13;9.40;99.90
13072;DHT22;6602;58.934;11.166;2023-05-27T04:21:15;10.20;99.90
13072;DHT22;6602;58.934;11.166;2023-05-27T04:26:16;10.40;99.90
13072;DHT22;6602;58.934;11.166;2023-05-27T04:31:19;10.10;99.90
13072;DHT22;6602;58.934;11.166;2023-05-27T04:36:23;10.60;99.90
13072;DHT22;6602;58.934;11.166;2023-05-27T04:41:30;11.50;99.90
13072;DHT22;6602;58.934;11.166;2023-05-27T04:46:33;12.00;99.90
13072;DHT22;6602;58.934;11.166;2023-05-27T04:51:34;12.00;99.90
13072;DHT22;6602;58.934;11.166;2023-05-27T04:56:36;12.20;99.90
13072;DHT22;6602;58.934;11.166;2023-05-27T05:01:37;13.00;99.90
13072;DHT22;6602;58.934;11.166;2023-05-27T05:07:00;14.00;99.90
13072;DHT22;6602;58.934;11.166;2023-05-27T05:12:02;15.00;99.90
13072;DHT22;6602;58.934;11.166;2023-05-27T05:17:05;16.60;99.90
13072;DHT22;6602;58.934;11.166;2023-05-27T05:22:09;18.20;99.90
13072;DHT22;6602;58.934;11.166;2023-05-27T05:27:11;19.10;99.90
13072;DHT22;6602;58.934;11.166;2023-05-27T05:32:12;18.60;99.90
13072;DHT22;6602;58.934;11.166;2023-05-27T05:37:13;18.00;99.90
13072;DHT22;6602;58.934;11.166;2023-05-27T05:42:14;18.00;99.90
13072;DHT22;6602;58.934;11.166;2023-05-27T05:47:16;17.30;99.90
13072;DHT22;6602;58.934;11.166;2023-05-27T05:52:17;16.50;99.90
13072;DHT22;6602;58.934;11.166;2023-05-27T05:57:17;16.30;99.90
13072;DHT22;6602;58.934;11.166;2023-05-27T06:02:18;16.60;99.90
13072;DHT22;6602;58.934;11.166;2023-05-27T06:07:19;16.90;99.90
13072;DHT22;6602;58.934;11.166;2023-05-27T06:12:24;17.10;99.90
13072;DHT22;6602;58.934;11.166;2023-05-27T06:17:28;17.50;99.90
13072;DHT22;6602;58.934;11.166;2023-05-27T06:22:33;17.50;99.90
13072;DHT22;6602;58.934;11.166;2023-05-27T06:27:53;17.50;99.90
13072;DHT22;6602;58.934;11.166;2023-05-27T06:32:54;18.30;99.90
13072;DHT22;6602;58.934;11.166;2023-05-27T06:37:58;19.00;99.90
13072;DHT22;6602;58.934;11.166;2023-05-27T06:43:16;18.80;99.90
13072;DHT22;6602;58.934;11.166;2023-05-27T06:48:17;18.80;99.90
13072;DHT22;6602;58.934;11.166;2023-05-27T06:53:23;19.20;99.90
13072;DHT22;6602;58.934;11.166;2023-05-27T06:58:24;19.10;99.90
13072;DHT22;6602;58.934;11.166;2023-05-27T07:03:37;19.00;99.90
13072;DHT22;6602;58.934;11.166;2023-05-27T07:08:57;18.80;99.90
13072;DHT22;6602;58.934;11.166;2023-05-27T07:13:58;19.20;99.90
13072;DHT22;6602;58.934;11.166;2023-05-27T07:19:16;19.30;99.90
13072;DHT22;6602;58.934;11.166;2023-05-27T07:24:18;19.30;99.90
13072;DHT22;6602;58.934;11.166;2023-05-27T07:29:22;19.10;99.90
13072;DHT22;6602;58.934;11.166;2023-05-27T07:34:23;18.50;99.90
13072;DHT22;6602;58.934;11.166;2023-05-27T07:39:24;18.90;99.90
13072;DHT22;6602;58.934;11.166;2023-05-27T07:44:26;19.40;99.90
13072;DHT22;6602;58.934;11.166;2023-05-27T07:49:32;19.40;99.90
13072;DHT22;6602;58.934;11.166;2023-05-27T07:54:52;18.70;99.90
13072;DHT22;6602;58.934;11.166;2023-05-27T08:00:08;18.50;99.90
13072;DHT22;6602;58.934;11.166;2023-05-27T08:05:14;18.40;99.90
13072;DHT22;6602;58.934;11.166;2023-05-27T08:10:15;18.20;99.90
13072;DHT22;6602;58.934;11.166;2023-05-27T08:15:19;18.30;99.90
13072;DHT22;6602;58.934;11.166;2023-05-27T08:20:26;18.30;99.90
13072;DHT22;6602;58.934;11.166;2023-05-27T08:25:27;18.10;99.90
13072;DHT22;6602;58.934;11.166;2023-05-27T08:30:32;18.20;99.90
13072;DHT22;6602;58.934;11.166;2023-05-27T08:35:33;18.30;99.90
13072;DHT22;6602;58.934;11.166;2023-05-27T08:40:44;18.30;99.90
13072;DHT22;6602;58.934;11.166;2023-05-27T08:45:54;18.20;99.90
13072;DHT22;6602;58.934;11.166;2023-05-27T08:51:13;17.90;99.90
13072;DHT22;6602;58.934;11.166;2023-05-27T08:56:28;17.90;99.90
13072;DHT22;6602;58.934;11.166;2023-05-27T09:01:31;18.20;99.90
13072;DHT22;6602;58.934;11.166;2023-05-27T09:06:43;18.30;99.90
13072;DHT22;6602;58.934;11.166;2023-05-27T09:12:02;18.20;99.90
13072;DHT22;6602;58.934;11.166;2023-05-27T09:17:25;18.40;99.90
13072;DHT22;6602;58.934;11.166;2023-05-27T09:22:45;18.40;99.90
13072;DHT22;6602;58.934;11.166;2023-05-27T09:27:49;18.40;99.90
13072;DHT22;6602;58.934;11.166;2023-05-27T09:33:10;18.50;99.90
13072;DHT22;6602;58.934;11.166;2023-05-27T09:38:34;18.30;99.90
13072;DHT22;6602;58.934;11.166;2023-05-27T09:43:54;18.50;99.90
13072;DHT22;6602;58.934;11.166;2023-05-27T09:49:05;17.80;99.90
13072;DHT22;6602;58.934;11.166;2023-05-27T09:54:18;17.80;99.90
13072;DHT22;6602;58.934;11.166;2023-05-27T09:59:39;18.10;99.90
13072;DHT22;6602;58.934;11.166;2023-05-27T10:04:59;17.80;99.90
13072;DHT22;6602;58.934;11.166;2023-05-27T10:10:15;18.00;99.90
13072;DHT22;6602;58.934;11.166;2023-05-27T10:15:32;17.90;99.90
13072;DHT22;6602;58.934;11.166;2023-05-27T10:20:38;17.90;99.90
13072;DHT22;6602;58.934;11.166;2023-05-27T10:25:45;17.70;99.90
13072;DHT22;6602;58.934;11.166;2023-05-27T10:30:46;17.40;99.90
13072;DHT22;6602;58.934;11.166;2023-05-27T10:35:51;17.50;99.90
13072;DHT22;6602;58.934;11.166;2023-05-27T10:41:00;17.20;99.90
13072;DHT22;6602;58.934;11.166;2023-05-27T10:46:13;17.40;99.90
13072;DHT22;6602;58.934;11.166;2023-05-27T10:51:18;17.30;99.90
13072;DHT22;6602;58.934;11.166;2023-05-27T10:56:21;17.10;99.90
13072;DHT22;6602;58.934;11.166;2023-05-27T11:01:27;16.90;99.90
13072;DHT22;6602;58.934;11.166;2023-05-27T11:06:30;16.80;99.90
13072;DHT22;6602;58.934;11.166;2023-05-27T11:11:34;16.50;99.90
13072;DHT22;6602;58.934;11.166;2023-05-27T11:16:38;16.60;99.90
13072;DHT22;6602;58.934;11.166;2023-05-27T11:21:49;16.60;99.90
13072;DHT22;6602;58.934;11.166;2023-05-27T11:26:50;16.70;99.90
13072;DHT22;6602;58.934;11.166;2023-05-27T11:31:56;16.40;99.90
13072;DHT22;6602;58.934;11.166;2023-05-27T11:37:02;16.20;99.90
13072;DHT22;6602;58.934;11.166;2023-05-27T11:42:11;16.30;99.90
13072;DHT22;6602;58.934;11.166;2023-05-27T11:47:16;16.30;99.90
13072;DHT22;6602;58.934;11.166;2023-05-27T11:52:17;16.20;99.90
13072;DHT22;6602;58.934;11.166;2023-05-27T11:57:18;16.20;99.90
13072;DHT22;6602;58.934;11.166;2023-05-27T12:02:20;16.10;99.90
13072;DHT22;6602;58.934;11.166;2023-05-27T12:07:23;16.00;99.90
13072;DHT22;6602;58.934;11.166;2023-05-27T12:12:24;16.00;99.90
13072;DHT22;6602;58.934;11.166;2023-05-27T12:17:31;16.10;99.90
13072;DHT22;6602;58.934;11.166;2023-05-27T12:22:32;15.80;99.90
13072;DHT22;6602;58.934;11.166;2023-05-27T12:27:34;15.70;99.90
13072;DHT22;6602;58.934;11.166;2023-05-27T12:32:40;15.40;99.90
13072;DHT22;6602;58.934;11.166;2023-05-27T12:37:42;15.30;99.90
13072;DHT22;6602;58.934;11.166;2023-05-27T12:42:43;15.30;99.90
13072;DHT22;6602;58.934;11.166;2023-05-27T12:47:44;15.10;99.90
13072;DHT22;6602;58.934;11.166;2023-05-27T12:52:46;15.20;99.90
13072;DHT22;6602;58.934;11.166;2023-05-27T12:57:52;15.20;99.90
13072;DHT22;6602;58.934;11.166;2023-05-27T13:02:55;15.20;99.90
13072;DHT22;6602;58.934;11.166;2023-05-27T13:08:01;15.50;99.90
13072;DHT22;6602;58.934;11.166;2023-05-27T13:13:05;15.50;99.90
13072;DHT22;6602;58.934;11.166;2023-05-27T13:18:06;15.50;99.90
13072;DHT22;6602;58.934;11.166;2023-05-27T13:23:08;15.30;99.90
13072;DHT22;6602;58.934;11.166;2023-05-27T13:28:11;15.10;99.90
13072;DHT22;6602;58.934;11.166;2023-05-27T13:33:12;15.30;99.90
13072;DHT22;6602;58.934;11.166;2023-05-27T13:38:17;15.60;99.90
13072;DHT22;6602;58.934;11.166;2023-05-27T13:43:18;15.50;99.90
13072;DHT22;6602;58.934;11.166;2023-05-27T13:48:22;15.30;99.90
13072;DHT22;6602;58.934;11.166;2023-05-27T13:53:27;15.30;99.90
13072;DHT22;6602;58.934;11.166;2023-05-27T13:58:31;15.20;99.90
13072;DHT22;6602;58.934;11.166;2023-05-27T14:03:32;15.20;99.90
13072;DHT22;6602;58.934;11.166;2023-05-27T14:08:35;15.20;99.90
13072;DHT22;6602;58.934;11.166;2023-05-27T14:13:50;15.10;99.90
13072;DHT22;6602;58.934;11.166;2023-05-27T14:18:53;15.20;99.90
13072;DHT22;6602;58.934;11.166;2023-05-27T14:23:54;15.40;99.90
13072;DHT22;6602;58.934;11.166;2023-05-27T14:28:58;15.30;99.90
13072;DHT22;6602;58.934;11.166;2023-05-27T14:34:00;15.30;99.90
13072;DHT22;6602;58.934;11.166;2023-05-27T14:39:04;15.10;99.90
13072;DHT22;6602;58.934;11.166;2023-05-27T14:44:09;14.90;99.90
13072;DHT22;6602;58.934;11.166;2023-05-27T14:49:17;14.70;99.90
13072;DHT22;6602;58.934;11.166;2023-05-27T14:54:18;14.70;99.90
13072;DHT22;6602;58.934;11.166;2023-05-27T14:59:19;15.00;99.90
13072;DHT22;6602;58.934;11.166;2023-05-27T15:04:22;15.00;99.90
13072;DHT22;6602;58.934;11.166;2023-05-27T15:09:26;15.00;99.90
13072;DHT22;6602;58.934;11.166;2023-05-27T15:14:28;14.90;99.90
13072;DHT22;6602;58.934;11.166;2023-05-27T15:19:29;15.20;99.90
13072;DHT22;6602;58.934;11.166;2023-05-27T15:24:31;15.10;99.90
13072;DHT22;6602;58.934;11.166;2023-05-27T15:29:41;14.70;99.90
13072;DHT22;6602;58.934;11.166;2023-05-27T15:34:42;14.50;99.90
13072;DHT22;6602;58.934;11.166;2023-05-27T15:39:43;14.30;99.90
13072;DHT22;6602;58.934;11.166;2023-05-27T15:44:45;14.30;99.90
13072;DHT22;6602;58.934;11.166;2023-05-27T15:49:59;14.10;99.90
13072;DHT22;6602;58.934;11.166;2023-05-27T15:55:00;13.90;99.90
13072;DHT22;6602;58.934;11.166;2023-05-27T16:00:00;13.80;99.90
13072;DHT22;6602;58.934;11.166;2023-05-27T16:05:01;13.80;99.90
13072;DHT22;6602;58.934;11.166;2023-05-27T16:10:03;13.90;99.90
13072;DHT22;6602;58.934;11.166;2023-05-27T16:15:04;13.90;99.90
13072;DHT22;6602;58.934;11.166;2023-05-27T16:20:06;13.80;99.90
13072;DHT22;6602;58.934;11.166;2023-05-27T16:25:08;13.60;99.90
13072;DHT22;6602;58.934;11.166;2023-05-27T16:30:09;13.50;99.90
13072;DHT22;6602;58.934;11.166;2023-05-27T16:35:11;13.40;99.90
13072;DHT22;6602;58.934;11.166;2023-05-27T16:40:13;13.40;99.90
13072;DHT22;6602;58.934;11.166;2023-05-27T16:45:18;13.40;99.90
13072;DHT22;6602;58.934;11.166;2023-05-27T16:50:18;13.30;99.90
13072;DHT22;6602;58.934;11.166;2023-05-27T16:55:20;13.20;99.90
13072;DHT22;6602;58.934;11.166;2023-05-27T17:00:23;13.20;99.90
13072;DHT22;6602;58.934;11.166;2023-05-27T17:05:24;13.20;99.90
13072;DHT22;6602;58.934;11.166;2023-05-27T17:10:25;13.20;99.90
13072;DHT22;6602;58.934;11.166;2023-05-27T17:15:35;13.20;99.90
13072;DHT22;6602;58.934;11.166;2023-05-27T17:20:37;13.10;99.90
13072;DHT22;6602;58.934;11.166;2023-05-27T17:25:37;13.10;99.90
13072;DHT22;6602;58.934;11.166;2023-05-27T17:30:38;13.00;99.90
13072;DHT22;6602;58.934;11.166;2023-05-27T17:35:40;13.00;99.90
13072;DHT22;6602;58.934;11.166;2023-05-27T17:40:43;13.00;99.90
13072;DHT22;6602;58.934;11.166;2023-05-27T17:45:45;13.00;99.90
13072;DHT22;6602;58.934;11.166;2023-05-27T17:50:50;13.00;99.90
13072;DHT22;6602;58.934;11.166;2023-05-27T17:55:54;13.00;99.90
13072;DHT22;6602;58.934;11.166;2023-05-27T18:00:55;13.10;99.90
13072;DHT22;6602;58.934;11.166;2023-05-27T18:06:01;13.10;99.90
13072;DHT22;6602;58.934;11.166;2023-05-27T18:11:03;13.10;99.90
13072;DHT22;6602;58.934;11.166;2023-05-27T18:16:06;13.10;99.90
13072;DHT22;6602;58.934;11.166;2023-05-27T18:21:06;13.10;99.90
13072;DHT22;6602;58.934;11.166;2023-05-27T18:26:09;13.10;99.90
13072;DHT22;6602;58.934;11.166;2023-05-27T18:31:10;13.10;99.90
13072;DHT22;6602;58.934;11.166;2023-05-27T18:36:11;13.00;99.90
13072;DHT22;6602;58.934;11.166;2023-05-27T18:41:14;13.00;99.90
13072;DHT22;6602;58.934;11.166;2023-05-27T18:46:16;12.90;99.90
13072;DHT22;6602;58.934;11.166;2023-05-27T18:51:17;12.90;99.90
13072;DHT22;6602;58.934;11.166;2023-05-27T18:56:20;12.90;99.90
13072;DHT22;6602;58.934;11.166;2023-05-27T19:01:25;12.90;99.90
13072;DHT22;6602;58.934;11.166;2023-05-27T19:06:33;12.90;99.90
13072;DHT22;6602;58.934;11.166;2023-05-27T19:11:36;12.80;99.90
13072;DHT22;6602;58.934;11.166;2023-05-27T19:16:43;12.80;99.90
13072;DHT22;6602;58.934;11.166;2023-05-27T19:21:48;12.80;99.90
13072;DHT22;6602;58.934;11.166;2023-05-27T19:26:57;12.70;99.90
13072;DHT22;6602;58.934;11.166;2023-05-27T19:32:05;12.70;99.90
13072;DHT22;6602;58.934;11.166;2023-05-27T19:37:06;12.70;99.90
13072;DHT22;6602;58.934;11.166;2023-05-27T19:42:09;12.70;99.90
13072;DHT22;6602;58.934;11.166;2023-05-27T19:47:16;12.70;99.90
13072;DHT22;6602;58.934;11.166;2023-05-27T19:52:22;12.70;99.90
13072;DHT22;6602;58.934;11.166;2023-05-27T19:57:30;12.70;99.90
13072;DHT22;6602;58.934;11.166;2023-05-27T20:02:31;12.60;99.90
13072;DHT22;6602;58.934;11.166;2023-05-27T20:07:35;12.60;99.90
13072;DHT22;6602;58.934;11.166;2023-05-27T20:17:42;12.50;99.90
13072;DHT22;6602;58.934;11.166;2023-05-27T20:22:44;12.50;99.90
13072;DHT22;6602;58.934;11.166;2023-05-27T20:27:53;12.50;99.90
13072;DHT22;6602;58.934;11.166;2023-05-27T20:33:03;12.60;99.90
13072;DHT22;6602;58.934;11.166;2023-05-27T20:38:05;12.50;99.90
13072;DHT22;6602;58.934;11.166;2023-05-27T20:43:11;12.50;99.90
13072;DHT22;6602;58.934;11.166;2023-05-27T20:48:12;12.40;99.90
13072;DHT22;6602;58.934;11.166;2023-05-27T20:53:14;12.40;99.90
13072;DHT22;6602;58.934;11.166;2023-05-27T20:58:22;12.40;99.90
13072;DHT22;6602;58.934;11.166;2023-05-27T21:03:26;12.40;99.90
13072;DHT22;6602;58.934;11.166;2023-05-27T21:08:27;12.40;99.90
13072;DHT22;6602;58.934;11.166;2023-05-27T21:13:37;12.40;99.90
13072;DHT22;6602;58.934;11.166;2023-05-27T21:18:45;12.40;99.90
13072;DHT22;6602;58.934;11.166;2023-05-27T21:23:49;12.40;99.90
13072;DHT22;6602;58.934;11.166;2023-05-27T21:28:50;12.40;99.90
13072;DHT22;6602;58.934;11.166;2023-05-27T21:33:53;12.40;99.90
13072;DHT22;6602;58.934;11.166;2023-05-27T21:38:57;12.30;99.90
13072;DHT22;6602;58.934;11.166;2023-05-27T21:43:59;12.30;99.90
13072;DHT22;6602;58.934;11.166;2023-05-27T21:49:06;12.30;99.90
13072;DHT22;6602;58.934;11.166;2023-05-27T21:54:08;12.30;99.90
13072;DHT22;6602;58.934;11.166;2023-05-27T21:59:11;12.30;99.90
13072;DHT22;6602;58.934;11.166;2023-05-27T22:04:12;12.30;99.90
13072;DHT22;6602;58.934;11.166;2023-05-27T22:09:14;12.30;99.90
13072;DHT22;6602;58.934;11.166;2023-05-27T22:14:16;12.20;99.90
13072;DHT22;6602;58.934;11.166;2023-05-27T22:19:20;12.20;99.90
13072;DHT22;6602;58.934;11.166;2023-05-27T22:24:25;12.20;99.90
13072;DHT22;6602;58.934;11.166;2023-05-27T22:29:32;12.20;99.90
13072;DHT22;6602;58.934;11.166;2023-05-27T22:34:32;12.20;99.90
13072;DHT22;6602;58.934;11.166;2023-05-27T22:39:38;12.30;99.90
13072;DHT22;6602;58.934;11.166;2023-05-27T22:44:41;12.30;99.90
13072;DHT22;6602;58.934;11.166;2023-05-27T22:49:47;12.20;99.90
13072;DHT22;6602;58.934;11.166;2023-05-27T22:54:49;12.20;99.90
13072;DHT22;6602;58.934;11.166;2023-05-27T22:59:50;12.30;99.90
13072;DHT22;6602;58.934;11.166;2023-05-27T23:04:54;12.30;99.90
13072;DHT22;6602;58.934;11.166;2023-05-27T23:09:56;12.30;99.90
13072;DHT22;6602;58.934;11.166;2023-05-27T23:14:58;12.30;99.90
13072;DHT22;6602;58.934;11.166;2023-05-27T23:20:00;12.30;99.90
13072;DHT22;6602;58.934;11.166;2023-05-27T23:25:07;12.30;99.90
13072;DHT22;6602;58.934;11.166;2023-05-27T23:30:11;12.30;99.90
13072;DHT22;6602;58.934;11.166;2023-05-27T23:35:18;12.40;99.90
13072;DHT22;6602;58.934;11.166;2023-05-27T23:40:26;12.40;99.90
13072;DHT22;6602;58.934;11.166;2023-05-27T23:45:27;12.40;99.90
13072;DHT22;6602;58.934;11.166;2023-05-27T23:50:28;12.30;99.90
13072;DHT22;6602;58.934;11.166;2023-05-27T23:55:30;12.30;99.90
